KGNT/GNT METAR and TAF weather

Enter ICAO airport designator
Station Type Date Time Source
KGNT METAR 2020/01/28 20:55 UTC NOAA

KGNT 282055Z AUTO 33008G16KT 300V010 10SM CLR 07/M11 A3014 RMK AO2 T00711111


Station Type Date Time Source
KGNT Decoded METAR 2020/01/28 20:55 UTC NOAA

GRANTS-MILAN MUNICIPAL AIRPORT , NM, United States (KGNT) 35-10N 107-54W 1987M
Jan 28, 2020 - 03:55 PM EST / 2020.01.28 2055 UTC
Wind: from the NNW (330 degrees) at 9 MPH (8 KT) gusting to 18 MPH (16 KT) (direction variable):0
Visibility: 10 mile(s):0
Sky conditions: clear
Temperature: 44.8 F (7.1 C)
Dew Point: 12.0 F (-11.1 C)
Relative Humidity: 26%
Pressure (altimeter): 30.14 in. Hg (1020 hPa)
ob: KGNT 282055Z AUTO 33008G16KT 300V010 10SM CLR 07/M11 A3014 RMK AO2 T00711111
cycle: 21

Station Type Date Time Source
KGNT TAF UTC NOAA

Error!

Example: see airport list